Aérodrome :
LOGIN :

S'inscrire | Disclaimer

   EN    FR    IT 

 










Légende :    VFR   VFR Marginal   IFR   IFR Intensif   IFR Très Intensif
Visi : 
Plafond : 
>= 8 km
>= 3000ft
5 à 8 km
1000 à 3000 ft
1500m à 5 km
500 à 1000 ft
800 à 1500m
200 à 500 ft
< 800m
< 200 ft
Symboles :   Orages  Brouillard  Fortes neiges  Fortes précipitations  Vent > 20 kt
SIGMETs :   Divers  Orages  Givrage  Turbulence  Onde Orograph.  Cendres Volcan.






- Altitude de l'aérodrome : 183 ft
- Code IATA : HAJ


EDDV - Hanover/Langenhagen Int.

DERNIER METAR :
  • 221520Z 11006KT 080V140 CAVOK 06/05 Q1008 TEMPO FM1630 BKN009

METARs EXPIRÉS :
  • 221450Z 11006KT CAVOK 07/04 Q1008 TEMPO FM1630 BKN009
  • 221420Z 11006KT 090V150 CAVOK 08/04 Q1008 NOSIG
  • 221350Z 14004KT 090V220 CAVOK 09/05 Q1008 NOSIG
  • 221320Z 11005KT 080V150 CAVOK 08/04 Q1008 NOSIG
  • 221250Z 11006KT 070V160 CAVOK 08/04 Q1008 NOSIG

TAF TAF EDDV
Valide du 22 à 12h jusqu'au 23 à 12h UTC


221100Z 2212/2312 12007KT CAVOK
BECMG 2218/2222 4000 BR BKN005
PROB40
TEMPO 2220/2309 BKN003
PROB30
TEMPO 2302/2310 0400 FG BKN001
BECMG 2303/2306 10012KT
BECMG 2309/2312 BKN010



MET'MAP, la Météo Aéronautique d'un coup d'oeil ! - Copyright ORBIFLY Décembre 2007 - Disclaimer

ORBIFLY MET'MAP TEAM :

Programmation & Développement : Alexandra Zaïnal
Conception & Développement : Baudouin d'Aumeries
Co-Programmation & Développement : Marc-Olivier Méhu
Soutien technique & logistique : Manuel Goepfert

Contact : metmap@orbifly.com




SOURCES & CREDITS :

   NOAA